sensor_id;sensor_type;location;lat;lon;timestamp;pressure;altitude;pressure_sealevel;temperature;humidity
7058;BME280;3570;43.080;25.628;2023-07-08T00:01:29;-20031.97;;;19.92;100.00
7058;BME280;3570;43.080;25.628;2023-07-08T00:04:13;-20031.69;;;19.91;100.00
7058;BME280;3570;43.080;25.628;2023-07-08T00:06:57;-20031.97;;;19.92;100.00
7058;BME280;3570;43.080;25.628;2023-07-08T00:09:41;-20033.72;;;19.98;100.00
7058;BME280;3570;43.080;25.628;2023-07-08T00:12:25;-20036.91;;;20.09;100.00
7058;BME280;3570;43.080;25.628;2023-07-08T00:15:09;-20039.66;;;20.18;100.00
7058;BME280;3570;43.080;25.628;2023-07-08T00:17:54;-20036.03;;;20.06;100.00
7058;BME280;3570;43.080;25.628;2023-07-08T00:20:42;-20028.34;;;19.79;100.00
7058;BME280;3570;43.080;25.628;2023-07-08T00:23:27;-20024.13;;;19.64;100.00
7058;BME280;3570;43.080;25.628;2023-07-08T00:26:17;-20019.34;;;19.48;100.00
7058;BME280;3570;43.080;25.628;2023-07-08T00:29:02;-20003.25;;;18.92;100.00
7058;BME280;3570;43.080;25.628;2023-07-08T00:31:46;-20004.56;;;18.97;100.00
7058;BME280;3570;43.080;25.628;2023-07-08T00:34:30;-20004.69;;;18.97;100.00
7058;BME280;3570;43.080;25.628;2023-07-08T00:37:14;-19990.19;;;18.47;100.00
7058;BME280;3570;43.080;25.628;2023-07-08T00:39:58;-20008.75;;;19.11;100.00
7058;BME280;3570;43.080;25.628;2023-07-08T00:42:44;-20009.50;;;19.14;100.00
7058;BME280;3570;43.080;25.628;2023-07-08T00:48:30;-20006.59;;;19.04;100.00
7058;BME280;3570;43.080;25.628;2023-07-08T00:51:16;-20002.38;;;18.89;100.00
7058;BME280;3570;43.080;25.628;2023-07-08T00:54:01;-20004.56;;;18.97;100.00
7058;BME280;3570;43.080;25.628;2023-07-08T00:56:53;-20010.94;;;19.19;100.00
7058;BME280;3570;43.080;25.628;2023-07-08T00:59:42;-20001.78;;;18.87;100.00
7058;BME280;3570;43.080;25.628;2023-07-08T01:02:28;-20000.94;;;18.84;100.00
7058;BME280;3570;43.080;25.628;2023-07-08T01:05:17;-20007.75;;;19.08;100.00
7058;BME280;3570;43.080;25.628;2023-07-08T01:08:04;-20005.72;;;19.01;100.00
7058;BME280;3570;43.080;25.628;2023-07-08T01:10:53;-20008.47;;;19.10;100.00
7058;BME280;3570;43.080;25.628;2023-07-08T01:13:42;-20009.63;;;19.14;100.00
7058;BME280;3570;43.080;25.628;2023-07-08T01:16:27;-20001.22;;;18.85;100.00
7058;BME280;3570;43.080;25.628;2023-07-08T01:19:16;-20000.06;;;18.81;100.00
7058;BME280;3570;43.080;25.628;2023-07-08T01:22:04;-20005.28;;;18.99;100.00
7058;BME280;3570;43.080;25.628;2023-07-08T01:24:49;-20004.41;;;18.96;100.00
7058;BME280;3570;43.080;25.628;2023-07-08T01:27:36;-20007.31;;;19.06;100.00
7058;BME280;3570;43.080;25.628;2023-07-08T01:30:21;-20006.72;;;19.04;100.00
7058;BME280;3570;43.080;25.628;2023-07-08T01:33:07;-20004.13;;;18.95;100.00
7058;BME280;3570;43.080;25.628;2023-07-08T01:35:56;-20005.72;;;19.01;100.00
7058;BME280;3570;43.080;25.628;2023-07-08T01:38:41;-20007.31;;;19.06;100.00
7058;BME280;3570;43.080;25.628;2023-07-08T01:41:26;-20001.06;;;18.85;100.00
7058;BME280;3570;43.080;25.628;2023-07-08T01:47:12;-20010.78;;;19.18;100.00
7058;BME280;3570;43.080;25.628;2023-07-08T01:49:58;-19990.63;;;18.48;100.00
7058;BME280;3570;43.080;25.628;2023-07-08T01:52:42;-20010.06;;;19.16;100.00
7058;BME280;3570;43.080;25.628;2023-07-08T01:55:27;-20008.03;;;19.09;100.00
7058;BME280;3570;43.080;25.628;2023-07-08T01:58:14;-20005.88;;;19.01;100.00
7058;BME280;3570;43.080;25.628;2023-07-08T02:00:58;-20005.00;;;18.98;100.00
7058;BME280;3570;43.080;25.628;2023-07-08T02:03:42;-20005.28;;;18.99;100.00
7058;BME280;3570;43.080;25.628;2023-07-08T02:06:25;-20003.84;;;18.94;100.00
7058;BME280;3570;43.080;25.628;2023-07-08T02:09:09;-20005.28;;;18.99;100.00
7058;BME280;3570;43.080;25.628;2023-07-08T02:11:53;-20004.69;;;18.97;100.00
7058;BME280;3570;43.080;25.628;2023-07-08T02:14:38;-19996.88;;;18.70;100.00
7058;BME280;3570;43.080;25.628;2023-07-08T02:17:22;-19994.41;;;18.61;100.00
7058;BME280;3570;43.080;25.628;2023-07-08T02:20:06;-19998.75;;;18.76;100.00
7058;BME280;3570;43.080;25.628;2023-07-08T02:22:52;-19997.00;;;18.70;100.00
7058;BME280;3570;43.080;25.628;2023-07-08T02:25:36;-19994.25;;;18.61;100.00
7058;BME280;3570;43.080;25.628;2023-07-08T02:28:20;-19993.38;;;18.58;100.00
7058;BME280;3570;43.080;25.628;2023-07-08T02:31:04;-19985.09;;;18.29;100.00
7058;BME280;3570;43.080;25.628;2023-07-08T02:33:48;-19983.06;;;18.22;100.00
7058;BME280;3570;43.080;25.628;2023-07-08T02:36:33;-19992.22;;;18.54;100.00
7058;BME280;3570;43.080;25.628;2023-07-08T02:39:18;-19994.09;;;18.60;100.00
7058;BME280;3570;43.080;25.628;2023-07-08T02:42:02;-19985.25;;;18.30;100.00
7058;BME280;3570;43.080;25.628;2023-07-08T02:44:45;-19987.56;;;18.38;100.00
7058;BME280;3570;43.080;25.628;2023-07-08T02:47:29;-19994.69;;;18.62;100.00
7058;BME280;3570;43.080;25.628;2023-07-08T02:50:13;-19983.94;;;18.25;100.00
7058;BME280;3570;43.080;25.628;2023-07-08T02:52:57;-19986.41;;;18.34;100.00
7058;BME280;3570;43.080;25.628;2023-07-08T02:55:41;-19989.47;;;18.44;100.00
7058;BME280;3570;43.080;25.628;2023-07-08T02:58:26;-20000.63;;;18.83;100.00
7058;BME280;3570;43.080;25.628;2023-07-08T03:01:09;-20008.91;;;19.12;100.00
7058;BME280;3570;43.080;25.628;2023-07-08T03:03:53;-20015.44;;;19.34;100.00
7058;BME280;3570;43.080;25.628;2023-07-08T03:06:43;-20004.69;;;18.97;100.00
7058;BME280;3570;43.080;25.628;2023-07-08T03:09:27;-20013.41;;;19.27;100.00
7058;BME280;3570;43.080;25.628;2023-07-08T03:12:12;-20009.91;;;19.15;100.00
7058;BME280;3570;43.080;25.628;2023-07-08T03:14:56;-20002.66;;;18.90;100.00
7058;BME280;3570;43.080;25.628;2023-07-08T03:17:40;-19995.72;;;18.66;100.00
7058;BME280;3570;43.080;25.628;2023-07-08T03:20:25;-19986.84;;;18.35;100.00
7058;BME280;3570;43.080;25.628;2023-07-08T03:23:09;-19995.28;;;18.64;100.00
7058;BME280;3570;43.080;25.628;2023-07-08T03:25:53;-20004.69;;;18.97;100.00
7058;BME280;3570;43.080;25.628;2023-07-08T03:28:37;-20000.06;;;18.81;100.00
7058;BME280;3570;43.080;25.628;2023-07-08T03:31:21;-19997.59;;;18.72;100.00
7058;BME280;3570;43.080;25.628;2023-07-08T03:34:05;-20001.50;;;18.86;100.00
7058;BME280;3570;43.080;25.628;2023-07-08T03:36:50;-19992.22;;;18.54;100.00
7058;BME280;3570;43.080;25.628;2023-07-08T03:39:34;-19999.34;;;18.78;100.00
7058;BME280;3570;43.080;25.628;2023-07-08T03:42:18;-20001.50;;;18.86;100.00
7058;BME280;3570;43.080;25.628;2023-07-08T03:45:03;-19999.34;;;18.78;100.00
7058;BME280;3570;43.080;25.628;2023-07-08T03:47:47;-19999.78;;;18.80;100.00
7058;BME280;3570;43.080;25.628;2023-07-08T03:50:31;-19998.91;;;18.77;100.00
7058;BME280;3570;43.080;25.628;2023-07-08T03:53:15;-20005.28;;;18.99;100.00
7058;BME280;3570;43.080;25.628;2023-07-08T03:55:59;-20005.88;;;19.01;100.00
7058;BME280;3570;43.080;25.628;2023-07-08T03:58:43;-20012.25;;;19.23;100.00
7058;BME280;3570;43.080;25.628;2023-07-08T04:01:27;-20012.09;;;19.23;100.00
7058;BME280;3570;43.080;25.628;2023-07-08T04:04:13;-20026.47;;;19.73;100.00
7058;BME280;3570;43.080;25.628;2023-07-08T04:06:58;-20040.38;;;20.21;100.00
7058;BME280;3570;43.080;25.628;2023-07-08T04:09:42;-20056.31;;;20.76;100.00
7058;BME280;3570;43.080;25.628;2023-07-08T04:12:30;-20063.41;;;21.01;100.00
7058;BME280;3570;43.080;25.628;2023-07-08T04:15:14;-20068.50;;;21.18;100.00
7058;BME280;3570;43.080;25.628;2023-07-08T04:18:00;-20065.75;;;21.09;100.00
7058;BME280;3570;43.080;25.628;2023-07-08T04:20:43;-20056.31;;;20.76;100.00
7058;BME280;3570;43.080;25.628;2023-07-08T04:23:27;-20051.84;;;20.60;100.00
7058;BME280;3570;43.080;25.628;2023-07-08T04:26:12;-20060.66;;;20.91;100.00
7058;BME280;3570;43.080;25.628;2023-07-08T04:28:56;-20057.78;;;20.81;100.00
7058;BME280;3570;43.080;25.628;2023-07-08T04:31:40;-20049.50;;;20.52;100.00
7058;BME280;3570;43.080;25.628;2023-07-08T04:34:24;-20048.78;;;20.50;100.00
7058;BME280;3570;43.080;25.628;2023-07-08T04:37:11;-20052.84;;;20.64;100.00
7058;BME280;3570;43.080;25.628;2023-07-08T04:39:56;-20040.38;;;20.21;100.00
7058;BME280;3570;43.080;25.628;2023-07-08T04:42:39;-20055.16;;;20.72;100.00
7058;BME280;3570;43.080;25.628;2023-07-08T04:45:26;-20067.03;;;21.13;100.00
7058;BME280;3570;43.080;25.628;2023-07-08T04:48:14;-20075.31;;;21.42;100.00
7058;BME280;3570;43.080;25.628;2023-07-08T04:50:58;-20084.41;;;21.74;100.00
7058;BME280;3570;43.080;25.628;2023-07-08T04:53:43;-20078.63;;;21.53;100.00
7058;BME280;3570;43.080;25.628;2023-07-08T04:56:41;-20088.47;;;21.88;100.00
7058;BME280;3570;43.080;25.628;2023-07-08T04:59:26;-20086.75;;;21.82;100.00
7058;BME280;3570;43.080;25.628;2023-07-08T05:02:10;-20076.16;;;21.45;100.00
7058;BME280;3570;43.080;25.628;2023-07-08T05:04:54;-20085.00;;;21.76;100.00
7058;BME280;3570;43.080;25.628;2023-07-08T05:07:38;-20096.59;;;22.16;100.00
7058;BME280;3570;43.080;25.628;2023-07-08T05:10:22;-20101.50;;;22.33;100.00
7058;BME280;3570;43.080;25.628;2023-07-08T05:13:07;-20102.94;;;22.38;100.00
7058;BME280;3570;43.080;25.628;2023-07-08T05:15:51;-20099.75;;;22.27;100.00
7058;BME280;3570;43.080;25.628;2023-07-08T05:18:35;-20102.66;;;22.37;100.00
7058;BME280;3570;43.080;25.628;2023-07-08T05:21:20;-20101.78;;;22.34;100.00
7058;BME280;3570;43.080;25.628;2023-07-08T05:24:05;-20091.22;;;21.97;100.00
7058;BME280;3570;43.080;25.628;2023-07-08T05:26:50;-20103.22;;;22.39;100.00
7058;BME280;3570;43.080;25.628;2023-07-08T05:29:34;-20102.78;;;22.37;100.00
7058;BME280;3570;43.080;25.628;2023-07-08T05:32:18;-20099.31;;;22.25;100.00
7058;BME280;3570;43.080;25.628;2023-07-08T05:35:02;-20097.75;;;22.20;100.00
7058;BME280;3570;43.080;25.628;2023-07-08T05:37:47;-20103.22;;;22.39;100.00
7058;BME280;3570;43.080;25.628;2023-07-08T05:40:31;-20106.28;;;22.50;100.00
7058;BME280;3570;43.080;25.628;2023-07-08T05:43:16;-20109.47;;;22.61;100.00
7058;BME280;3570;43.080;25.628;2023-07-08T05:46:01;-20105.69;;;22.48;100.00
7058;BME280;3570;43.080;25.628;2023-07-08T05:48:46;-20094.25;;;22.08;100.00
7058;BME280;3570;43.080;25.628;2023-07-08T05:51:29;-20102.66;;;22.37;100.00
7058;BME280;3570;43.080;25.628;2023-07-08T05:54:14;-20103.53;;;22.40;100.00
7058;BME280;3570;43.080;25.628;2023-07-08T05:56:59;-20104.09;;;22.42;100.00
7058;BME280;3570;43.080;25.628;2023-07-08T05:59:43;-20093.09;;;22.04;100.00
7058;BME280;3570;43.080;25.628;2023-07-08T06:02:26;-20092.66;;;22.02;100.00
7058;BME280;3570;43.080;25.628;2023-07-08T06:05:10;-20099.47;;;22.26;100.00
7058;BME280;3570;43.080;25.628;2023-07-08T06:07:54;-20099.03;;;22.24;100.00
7058;BME280;3570;43.080;25.628;2023-07-08T06:10:43;-20094.41;;;22.08;100.00
7058;BME280;3570;43.080;25.628;2023-07-08T06:13:28;-20105.41;;;22.46;100.00
7058;BME280;3570;43.080;25.628;2023-07-08T06:16:11;-20107.72;;;22.55;100.00
7058;BME280;3570;43.080;25.628;2023-07-08T06:18:57;-20108.72;;;22.58;100.00
7058;BME280;3570;43.080;25.628;2023-07-08T06:21:41;-20096.28;;;22.15;100.00
7058;BME280;3570;43.080;25.628;2023-07-08T06:24:25;-20118.84;;;22.93;100.00
7058;BME280;3570;43.080;25.628;2023-07-08T06:27:09;-20115.09;;;22.80;100.00
7058;BME280;3570;43.080;25.628;2023-07-08T06:29:53;-20098.16;;;22.21;100.00
7058;BME280;3570;43.080;25.628;2023-07-08T06:32:37;-20075.16;;;21.41;100.00
7058;BME280;3570;43.080;25.628;2023-07-08T06:35:21;-20089.78;;;21.92;100.00
7058;BME280;3570;43.080;25.628;2023-07-08T06:38:06;-20096.00;;;22.14;100.00
7058;BME280;3570;43.080;25.628;2023-07-08T06:40:50;-20105.25;;;22.46;100.00
7058;BME280;3570;43.080;25.628;2023-07-08T06:43:34;-20098.31;;;22.22;100.00
7058;BME280;3570;43.080;25.628;2023-07-08T06:46:18;-20087.59;;;21.85;100.00
7058;BME280;3570;43.080;25.628;2023-07-08T06:49:05;-20071.69;;;21.29;100.00
7058;BME280;3570;43.080;25.628;2023-07-08T06:51:52;-20095.28;;;22.11;100.00
7058;BME280;3570;43.080;25.628;2023-07-08T06:54:36;-20090.50;;;21.95;100.00
7058;BME280;3570;43.080;25.628;2023-07-08T06:57:20;-20094.25;;;22.08;100.00
7058;BME280;3570;43.080;25.628;2023-07-08T07:00:06;-20087.03;;;21.83;100.00
7058;BME280;3570;43.080;25.628;2023-07-08T07:02:51;-20080.38;;;21.60;100.00
7058;BME280;3570;43.080;25.628;2023-07-08T07:05:35;-20097.16;;;22.18;100.00
7058;BME280;3570;43.080;25.628;2023-07-08T07:08:19;-20095.00;;;22.10;100.00
7058;BME280;3570;43.080;25.628;2023-07-08T07:11:03;-20079.50;;;21.57;100.00
7058;BME280;3570;43.080;25.628;2023-07-08T07:13:47;-20079.50;;;21.57;100.00
7058;BME280;3570;43.080;25.628;2023-07-08T07:16:31;-20082.09;;;21.66;100.00
7058;BME280;3570;43.080;25.628;2023-07-08T07:19:14;-20088.47;;;21.88;100.00
7058;BME280;3570;43.080;25.628;2023-07-08T07:21:58;-20098.31;;;22.22;100.00
7058;BME280;3570;43.080;25.628;2023-07-08T07:24:42;-20098.75;;;22.23;100.00
7058;BME280;3570;43.080;25.628;2023-07-08T07:27:26;-20089.34;;;21.91;100.00
7058;BME280;3570;43.080;25.628;2023-07-08T07:30:10;-20102.66;;;22.37;100.00
7058;BME280;3570;43.080;25.628;2023-07-08T07:32:59;-20119.56;;;22.96;100.00
7058;BME280;3570;43.080;25.628;2023-07-08T07:35:44;-20112.50;;;22.71;100.00
7058;BME280;3570;43.080;25.628;2023-07-08T07:38:32;-20111.34;;;22.67;100.00
7058;BME280;3570;43.080;25.628;2023-07-08T07:41:16;-20105.53;;;22.47;100.00
7058;BME280;3570;43.080;25.628;2023-07-08T07:44:00;-20097.31;;;22.18;100.00
7058;BME280;3570;43.080;25.628;2023-07-08T07:46:44;-20086.59;;;21.81;100.00
7058;BME280;3570;43.080;25.628;2023-07-08T07:49:30;-20086.44;;;21.81;100.00
7058;BME280;3570;43.080;25.628;2023-07-08T07:52:14;-20075.72;;;21.43;100.00
7058;BME280;3570;43.080;25.628;2023-07-08T07:54:59;-20071.09;;;21.27;100.00
7058;BME280;3570;43.080;25.628;2023-07-08T07:57:43;-20076.03;;;21.44;100.00
7058;BME280;3570;43.080;25.628;2023-07-08T08:00:29;-20086.44;;;21.81;100.00
7058;BME280;3570;43.080;25.628;2023-07-08T08:03:15;-20094.56;;;22.09;100.00
7058;BME280;3570;43.080;25.628;2023-07-08T08:06:00;-20100.06;;;22.28;100.00
7058;BME280;3570;43.080;25.628;2023-07-08T08:08:45;-20114.66;;;22.79;100.00
7058;BME280;3570;43.080;25.628;2023-07-08T08:11:29;-20120.44;;;22.99;100.00
7058;BME280;3570;43.080;25.628;2023-07-08T08:14:14;-20128.69;;;23.27;100.00
7058;BME280;3570;43.080;25.628;2023-07-08T08:16:58;-20130.13;;;23.32;100.00
7058;BME280;3570;43.080;25.628;2023-07-08T08:19:42;-20109.03;;;22.59;100.00
7058;BME280;3570;43.080;25.628;2023-07-08T08:22:25;-20129.84;;;23.31;100.00
7058;BME280;3570;43.080;25.628;2023-07-08T08:25:09;-20125.38;;;23.16;100.00
7058;BME280;3570;43.080;25.628;2023-07-08T08:27:54;-20114.38;;;22.78;100.00
7058;BME280;3570;43.080;25.628;2023-07-08T08:30:38;-20119.88;;;22.97;100.00
7058;BME280;3570;43.080;25.628;2023-07-08T08:33:22;-20118.56;;;22.92;100.00
7058;BME280;3570;43.080;25.628;2023-07-08T08:36:06;-20128.69;;;23.27;100.00
7058;BME280;3570;43.080;25.628;2023-07-08T08:38:50;-20128.41;;;23.26;100.00
7058;BME280;3570;43.080;25.628;2023-07-08T08:41:37;-20122.03;;;23.04;100.00
7058;BME280;3570;43.080;25.628;2023-07-08T08:44:30;-20103.38;;;22.39;100.00
7058;BME280;3570;43.080;25.628;2023-07-08T08:47:43;-20101.94;;;22.34;100.00
7058;BME280;3570;43.080;25.628;2023-07-08T08:53:18;-20098.03;;;22.21;100.00
7058;BME280;3570;43.080;25.628;2023-07-08T09:01:50;-20087.03;;;21.83;100.00
7058;BME280;3570;43.080;25.628;2023-07-08T09:04:35;-20089.19;;;21.90;100.00
7058;BME280;3570;43.080;25.628;2023-07-08T09:07:21;-20099.03;;;22.24;100.00
7058;BME280;3570;43.080;25.628;2023-07-08T09:10:19;-20109.31;;;22.60;100.00
7058;BME280;3570;43.080;25.628;2023-07-08T09:13:08;-20117.41;;;22.88;100.00
7058;BME280;3570;43.080;25.628;2023-07-08T09:17:01;-20131.16;;;23.36;100.00
7058;BME280;3570;43.080;25.628;2023-07-08T09:19:15;-20143.13;;;23.78;100.00
7058;BME280;3570;43.080;25.628;2023-07-08T09:25:20;-20145.03;;;23.84;100.00
7058;BME280;3570;43.080;25.628;2023-07-08T09:28:06;-20145.16;;;23.85;100.00
7058;BME280;3570;43.080;25.628;2023-07-08T09:30:53;-20154.41;;;24.17;100.00
7058;BME280;3570;43.080;25.628;2023-07-08T09:33:38;-20157.88;;;24.29;100.00
7058;BME280;3570;43.080;25.628;2023-07-08T09:36:24;-20168.41;;;24.66;100.00
7058;BME280;3570;43.080;25.628;2023-07-08T09:39:13;-20176.06;;;24.92;100.00
7058;BME280;3570;43.080;25.628;2023-07-08T09:42:06;-20179.81;;;25.05;100.00
7058;BME280;3570;43.080;25.628;2023-07-08T09:44:56;-20188.91;;;25.37;100.00
7058;BME280;3570;43.080;25.628;2023-07-08T09:47:43;-20187.91;;;25.34;100.00
7058;BME280;3570;43.080;25.628;2023-07-08T09:50:29;-20194.81;;;25.58;100.00
7058;BME280;3570;43.080;25.628;2023-07-08T09:53:15;-20195.41;;;25.60;100.00
7058;BME280;3570;43.080;25.628;2023-07-08T09:56:00;-20199.59;;;25.74;100.00
7058;BME280;3570;43.080;25.628;2023-07-08T09:58:46;-20220.34;;;26.47;100.00
7058;BME280;3570;43.080;25.628;2023-07-08T10:01:33;-20232.16;;;26.88;100.00
7058;BME280;3570;43.080;25.628;2023-07-08T10:04:18;-20223.66;;;26.58;100.00
7058;BME280;3570;43.080;25.628;2023-07-08T10:07:05;-20225.38;;;26.64;100.00
7058;BME280;3570;43.080;25.628;2023-07-08T10:09:57;-20219.03;;;26.42;100.00
7058;BME280;3570;43.080;25.628;2023-07-08T10:12:55;-20211.97;;;26.18;100.00
7058;BME280;3570;43.080;25.628;2023-07-08T10:15:44;-20195.84;;;25.61;100.00
7058;BME280;3570;43.080;25.628;2023-07-08T10:18:31;-20193.09;;;25.52;100.00
7058;BME280;3570;43.080;25.628;2023-07-08T10:30:24;-20167.53;;;24.63;100.00
7058;BME280;3570;43.080;25.628;2023-07-08T10:33:24;-20164.22;;;24.51;100.00
7058;BME280;3570;43.080;25.628;2023-07-08T10:36:21;-20162.63;;;24.46;100.00
7058;BME280;3570;43.080;25.628;2023-07-08T10:39:26;-20170.59;;;24.73;100.00
7058;BME280;3570;43.080;25.628;2023-07-08T10:42:19;-20178.22;;;25.00;100.00
7058;BME280;3570;43.080;25.628;2023-07-08T10:45:25;-20176.50;;;24.94;100.00
7058;BME280;3570;43.080;25.628;2023-07-08T10:54:19;-20176.34;;;24.93;100.00
7058;BME280;3570;43.080;25.628;2023-07-08T11:00:14;-20180.41;;;25.07;100.00
7058;BME280;3570;43.080;25.628;2023-07-08T11:06:11;-20201.75;;;25.82;100.00
7058;BME280;3570;43.080;25.628;2023-07-08T11:09:00;-20192.66;;;25.50;100.00
7058;BME280;3570;43.080;25.628;2023-07-08T11:11:55;-20181.97;;;25.13;100.00
7058;BME280;3570;43.080;25.628;2023-07-08T11:15:05;-20193.25;;;25.52;100.00
7058;BME280;3570;43.080;25.628;2023-07-08T11:20:45;-20188.03;;;25.34;100.00
7058;BME280;3570;43.080;25.628;2023-07-08T11:23:44;-20202.03;;;25.83;100.00
7058;BME280;3570;43.080;25.628;2023-07-08T11:26:48;-20205.78;;;25.96;100.00
7058;BME280;3570;43.080;25.628;2023-07-08T11:29:42;-20192.66;;;25.50;100.00
7058;BME280;3570;43.080;25.628;2023-07-08T11:32:31;-20177.78;;;24.98;100.00
7058;BME280;3570;43.080;25.628;2023-07-08T11:35:23;-20165.97;;;24.57;100.00
7058;BME280;3570;43.080;25.628;2023-07-08T11:38:16;-20174.91;;;24.88;100.00
7058;BME280;3570;43.080;25.628;2023-07-08T11:41:11;-20173.19;;;24.82;100.00
7058;BME280;3570;43.080;25.628;2023-07-08T11:44:03;-20185.88;;;25.27;100.00
7058;BME280;3570;43.080;25.628;2023-07-08T11:46:55;-20187.91;;;25.34;100.00
7058;BME280;3570;43.080;25.628;2023-07-08T11:49:39;-20179.25;;;25.03;100.00
7058;BME280;3570;43.080;25.628;2023-07-08T11:52:23;-20190.34;;;25.42;100.00
7058;BME280;3570;43.080;25.628;2023-07-08T11:55:48;-20234.03;;;26.94;100.00
7058;BME280;3570;43.080;25.628;2023-07-08T12:05:03;-20348.59;;;30.95;82.60
7058;BME280;3570;43.080;25.628;2023-07-08T12:07:56;-20384.28;;;32.20;72.71
7058;BME280;3570;43.080;25.628;2023-07-08T12:10:51;-20400.75;;;32.78;69.29
7058;BME280;3570;43.080;25.628;2023-07-08T12:13:35;-20385.88;;;32.26;71.55
7058;BME280;3570;43.080;25.628;2023-07-08T12:16:21;-20382.28;;;32.13;71.71
7058;BME280;3570;43.080;25.628;2023-07-08T12:19:06;-20359.06;;;31.32;69.11
7058;BME280;3570;43.080;25.628;2023-07-08T12:21:53;-20389.59;;;32.39;65.51
7058;BME280;3570;43.080;25.628;2023-07-08T12:24:37;-20363.09;;;31.46;72.43
7058;BME280;3570;43.080;25.628;2023-07-08T12:27:22;-20419.50;;;33.44;62.79
7058;BME280;3570;43.080;25.628;2023-07-08T12:30:07;-20440.09;;;34.16;58.70
7058;BME280;3570;43.080;25.628;2023-07-08T12:32:52;-20431.66;;;33.87;56.94
7058;BME280;3570;43.080;25.628;2023-07-08T12:35:36;-20441.53;;;34.22;56.33
7058;BME280;3570;43.080;25.628;2023-07-08T12:38:33;-20429.81;;;33.80;55.96
7058;BME280;3570;43.080;25.628;2023-07-08T12:41:22;-20389.03;;;32.37;63.88
7058;BME280;3570;43.080;25.628;2023-07-08T12:44:15;-20352.03;;;31.07;65.26
7058;BME280;3570;43.080;25.628;2023-07-08T12:47:02;-20303.09;;;29.36;72.22
7058;BME280;3570;43.080;25.628;2023-07-08T12:49:46;-20270.44;;;28.22;82.37
7058;BME280;3570;43.080;25.628;2023-07-08T12:52:30;-20252.91;;;27.60;90.39
7058;BME280;3570;43.080;25.628;2023-07-08T12:55:15;-20212.69;;;26.20;100.00
7058;BME280;3570;43.080;25.628;2023-07-08T12:57:59;-20166.38;;;24.59;100.00
7058;BME280;3570;43.080;25.628;2023-07-08T13:00:45;-20129.56;;;23.30;100.00
7058;BME280;3570;43.080;25.628;2023-07-08T13:03:34;-20115.09;;;22.80;100.00
7058;BME280;3570;43.080;25.628;2023-07-08T13:06:26;-20098.03;;;22.21;100.00
7058;BME280;3570;43.080;25.628;2023-07-08T13:09:28;-20072.13;;;21.31;100.00
7058;BME280;3570;43.080;25.628;2023-07-08T13:12:19;-20044.72;;;20.36;100.00
7058;BME280;3570;43.080;25.628;2023-07-08T13:15:19;-20034.44;;;20.00;100.00
7058;BME280;3570;43.080;25.628;2023-07-08T13:18:05;-20019.78;;;19.49;100.00
7058;BME280;3570;43.080;25.628;2023-07-08T13:20:53;-20017.19;;;19.40;100.00
7058;BME280;3570;43.080;25.628;2023-07-08T13:23:39;-20012.25;;;19.23;100.00
7058;BME280;3570;43.080;25.628;2023-07-08T13:26:27;-20009.34;;;19.13;100.00
7058;BME280;3570;43.080;25.628;2023-07-08T13:29:18;-20004.69;;;18.97;100.00
7058;BME280;3570;43.080;25.628;2023-07-08T13:32:05;-20005.44;;;19.00;100.00
7058;BME280;3570;43.080;25.628;2023-07-08T13:34:49;-20017.91;;;19.43;100.00
7058;BME280;3570;43.080;25.628;2023-07-08T13:37:35;-20035.16;;;20.03;100.00
7058;BME280;3570;43.080;25.628;2023-07-08T13:40:19;-20058.94;;;20.85;100.00
7058;BME280;3570;43.080;25.628;2023-07-08T13:43:03;-20085.28;;;21.77;100.00
7058;BME280;3570;43.080;25.628;2023-07-08T13:45:47;-20136.22;;;23.54;100.00
7058;BME280;3570;43.080;25.628;2023-07-08T13:48:40;-20157.16;;;24.26;100.00
7058;BME280;3570;43.080;25.628;2023-07-08T13:51:29;-20169.44;;;24.69;100.00
7058;BME280;3570;43.080;25.628;2023-07-08T13:54:20;-20190.66;;;25.43;100.00
7058;BME280;3570;43.080;25.628;2023-07-08T13:57:10;-20198.28;;;25.70;100.00
7058;BME280;3570;43.080;25.628;2023-07-08T13:59:54;-20192.22;;;25.49;100.00
7058;BME280;3570;43.080;25.628;2023-07-08T14:02:43;-20198.13;;;25.69;100.00
7058;BME280;3570;43.080;25.628;2023-07-08T14:05:27;-20190.78;;;25.44;100.00
7058;BME280;3570;43.080;25.628;2023-07-08T14:08:16;-20230.56;;;26.82;100.00
7058;BME280;3570;43.080;25.628;2023-07-08T14:11:01;-20248.88;;;27.46;87.62
7058;BME280;3570;43.080;25.628;2023-07-08T14:13:45;-20266.13;;;28.07;85.61
7058;BME280;3570;43.080;25.628;2023-07-08T14:16:31;-20290.59;;;28.92;73.95
7058;BME280;3570;43.080;25.628;2023-07-08T14:19:22;-20272.47;;;28.29;79.70
7058;BME280;3570;43.080;25.628;2023-07-08T14:25:01;-20204.91;;;25.93;97.22
7058;BME280;3570;43.080;25.628;2023-07-08T14:27:47;-20255.34;;;27.69;86.40
7058;BME280;3570;43.080;25.628;2023-07-08T14:30:34;-20299.78;;;29.24;79.42
7058;BME280;3570;43.080;25.628;2023-07-08T14:33:22;-20325.19;;;30.13;74.63
7058;BME280;3570;43.080;25.628;2023-07-08T14:36:10;-20370.69;;;31.73;67.30
7058;BME280;3570;43.080;25.628;2023-07-08T14:38:55;-20382.56;;;32.14;62.87
7058;BME280;3570;43.080;25.628;2023-07-08T14:41:40;-20410.50;;;33.12;57.73
7058;BME280;3570;43.080;25.628;2023-07-08T14:44:30;-20354.47;;;31.16;64.15
7058;BME280;3570;43.080;25.628;2023-07-08T14:47:18;-20314.44;;;29.76;72.61
7058;BME280;3570;43.080;25.628;2023-07-08T14:50:13;-20334.41;;;30.45;69.92
7058;BME280;3570;43.080;25.628;2023-07-08T14:52:57;-20345.03;;;30.83;69.89
7058;BME280;3570;43.080;25.628;2023-07-08T14:55:42;-20335.84;;;30.50;71.08
7058;BME280;3570;43.080;25.628;2023-07-08T14:58:30;-20353.63;;;31.13;67.90
7058;BME280;3570;43.080;25.628;2023-07-08T15:01:19;-20334.97;;;30.47;69.48
7058;BME280;3570;43.080;25.628;2023-07-08T15:04:10;-20329.09;;;30.27;72.33
7058;BME280;3570;43.080;25.628;2023-07-08T15:06:57;-20313.88;;;29.74;72.30
7058;BME280;3570;43.080;25.628;2023-07-08T15:09:43;-20293.59;;;29.03;77.53
7058;BME280;3570;43.080;25.628;2023-07-08T15:12:28;-20283.81;;;28.68;80.04
7058;BME280;3570;43.080;25.628;2023-07-08T15:15:33;-20335.25;;;30.48;74.15
7058;BME280;3570;43.080;25.628;2023-07-08T15:18:19;-20366.97;;;31.60;67.41
7058;BME280;3570;43.080;25.628;2023-07-08T15:21:03;-20358.94;;;31.31;68.45
7058;BME280;3570;43.080;25.628;2023-07-08T15:23:48;-20351.91;;;31.07;70.93